Time;durP1;ratioP1;P1;durP2;ratioP2;P2;SDS_P1;SDS_P2;PMS_P1;PMS_P2;Temp;Humidity;BMP_temperature;BMP_pressure;BME280_temperature;BME280_humidity;BME280_pressure;Samples;Min_cycle;Max_cycle;Signal;HPM_P1;HPM_P2
2022/03/04 00:00:31;;;;;;;32.77;18.17;;;;;;;-144.19;100.00;78749.00;6142812;23;20365;-85
2022/03/04 00:02:57;;;;;;;32.85;18.75;;;;;;;-144.19;100.00;78745.06;6126413;23;20256;-85
2022/03/04 00:05:24;;;;;;;28.05;17.13;;;;;;;-144.19;100.00;78737.19;6127742;23;20124;-86
2022/03/04 00:07:51;;;;;;;34.63;18.05;;;;;;;-144.19;100.00;78733.25;6153181;23;20096;-86
2022/03/04 00:10:17;;;;;;;34.78;18.25;;;;;;;-144.19;100.00;78750.97;6127360;23;20366;-85
2022/03/04 00:12:43;;;;;;;32.90;17.50;;;;;;;-144.19;100.00;78756.88;6152399;23;20021;-86
2022/03/04 00:15:10;;;;;;;32.88;18.15;;;;;;;-144.19;100.00;78770.66;6127359;23;20021;-85
2022/03/04 00:17:36;;;;;;;33.90;18.30;;;;;;;-144.19;100.00;78780.50;6152191;23;20022;-86
2022/03/04 00:20:03;;;;;;;34.05;17.30;;;;;;;-144.19;100.00;78772.63;6153422;23;20029;-85
2022/03/04 00:22:30;;;;;;;33.72;18.63;;;;;;;-144.19;100.00;78762.78;6152610;23;20047;-86
2022/03/04 00:24:56;;;;;;;37.10;18.88;;;;;;;-144.19;100.00;78776.56;6153180;23;20028;-86
2022/03/04 00:27:22;;;;;;;32.13;17.25;;;;;;;-144.19;100.00;78786.41;6127129;23;20416;-85
2022/03/04 00:29:49;;;;;;;33.03;16.67;;;;;;;-144.19;100.00;78780.50;6152719;23;20022;-85
2022/03/04 00:32:15;;;;;;;29.17;15.90;;;;;;;-144.19;100.00;78792.34;6152468;23;20245;-86
2022/03/04 00:34:42;;;;;;;33.27;18.83;;;;;;;-144.19;100.00;78796.28;6153014;23;20032;-85
2022/03/04 00:37:08;;;;;;;32.30;16.20;;;;;;;-144.19;100.00;78786.41;6153142;23;20040;-85
2022/03/04 00:39:35;;;;;;;36.30;18.45;;;;;;;-144.19;100.00;78780.50;6126889;23;20508;-85
2022/03/04 00:42:02;;;;;;;31.02;16.15;;;;;;;-144.19;100.00;78788.38;6152381;23;20018;-86
2022/03/04 00:44:28;;;;;;;35.80;17.75;;;;;;;-144.19;100.00;78780.50;6152941;23;20048;-85
2022/03/04 00:46:54;;;;;;;33.65;17.92;;;;;;;-144.19;100.00;78792.34;6127040;23;20021;-85
2022/03/04 00:49:21;;;;;;;35.15;17.90;;;;;;;-144.19;100.00;78788.38;6126856;23;20025;-85
2022/03/04 00:51:47;;;;;;;34.08;18.20;;;;;;;-144.19;100.00;78802.19;6126726;23;20022;-85
2022/03/04 00:54:14;;;;;;;35.35;18.08;;;;;;;-144.19;100.00;78808.09;6152572;23;20022;-85
2022/03/04 00:56:41;;;;;;;30.35;17.88;;;;;;;-144.19;100.00;78798.25;6126578;23;20017;-85
2022/03/04 00:59:08;;;;;;;;;;;;;;;-144.19;100.00;78808.09;6151792;23;20101;-85
2022/03/04 01:01:34;;;;;;;36.35;17.83;;;;;;;-144.19;100.00;78808.09;6126691;23;19916;-85
2022/03/04 01:04:01;;;;;;;40.10;18.67;;;;;;;-144.19;100.00;78821.88;6151986;23;20026;-86
2022/03/04 01:06:27;;;;;;;29.85;16.75;;;;;;;-144.19;100.00;78815.97;6126898;23;20021;-85
2022/03/04 01:08:54;;;;;;;37.15;17.13;;;;;;;-144.19;100.00;78810.06;6126865;23;20030;-85
2022/03/04 01:11:20;;;;;;;33.03;18.43;;;;;;;-144.19;100.00;78812.03;6153180;23;20116;-85
2022/03/04 01:13:47;;;;;;;33.83;17.95;;;;;;;-144.19;100.00;78823.84;6126232;23;20237;-85
2022/03/04 01:16:13;;;;;;;36.63;17.95;;;;;;;-144.19;100.00;78857.31;6127101;23;20031;-85
2022/03/04 01:18:39;;;;;;;34.92;16.83;;;;;;;-144.19;100.00;78855.34;6126061;23;20167;-86
2022/03/04 01:21:06;;;;;;;38.97;20.17;;;;;;;-144.19;100.00;78849.44;6152883;23;20025;-85
2022/03/04 01:23:32;;;;;;;36.13;18.93;;;;;;;-144.19;100.00;78847.47;6152099;23;20021;-85
2022/03/04 01:25:59;;;;;;;37.15;18.70;;;;;;;-144.19;100.00;78857.31;6126782;23;20591;-86
2022/03/04 01:28:25;;;;;;;37.47;19.47;;;;;;;-144.19;100.00;78859.28;6152196;23;20021;-86
2022/03/04 01:30:52;;;;;;;36.88;18.48;;;;;;;-144.19;100.00;78855.34;6126129;23;20025;-85
2022/03/04 01:33:19;;;;;;;37.05;18.75;;;;;;;-144.19;100.00;78855.34;6151854;23;20474;-85
2022/03/04 01:35:45;;;;;;;37.88;20.02;;;;;;;-144.19;100.00;78851.41;6127131;23;20031;-85
2022/03/04 01:38:12;;;;;;;35.38;18.50;;;;;;;-144.19;100.00;78843.53;6127175;23;20025;-85
2022/03/04 01:40:39;;;;;;;35.22;17.90;;;;;;;-144.19;100.00;78841.56;6126893;23;20097;-85
2022/03/04 01:43:05;;;;;;;37.80;20.63;;;;;;;-144.19;100.00;78835.66;6151856;23;20026;-86
2022/03/04 01:45:32;;;;;;;38.63;20.55;;;;;;;-144.19;100.00;78827.78;6126888;23;20028;-86
2022/03/04 01:47:58;;;;;;;39.50;20.55;;;;;;;-144.19;100.00;78819.91;6126548;23;20018;-85
2022/03/04 01:50:26;;;;;;;41.17;20.45;;;;;;;-144.19;100.00;78825.81;6126962;23;20183;-86
2022/03/04 01:52:53;;;;;;;34.42;18.35;;;;;;;-144.19;100.00;78833.69;6126701;23;20378;-85
2022/03/04 01:55:20;;;;;;;37.22;19.20;;;;;;;-144.19;100.00;78839.59;6127225;23;20021;-85
2022/03/04 01:57:46;;;;;;;35.58;19.05;;;;;;;-144.19;100.00;78843.53;6152443;23;20017;-85
2022/03/04 02:00:14;;;;;;;39.22;19.48;;;;;;;-144.19;100.00;78847.47;6137549;23;20033;-86
2022/03/04 02:02:42;;;;;;;40.95;21.95;;;;;;;-144.19;100.00;78853.38;6182691;23;20021;-86
2022/03/04 02:05:16;;;;;;;38.17;20.77;;;;;;;-144.19;100.00;78847.47;6183065;23;20028;-85
2022/03/04 02:07:43;;;;;;;35.80;21.15;;;;;;;-144.19;100.00;78851.41;6182263;23;20024;-86
2022/03/04 02:10:11;;;;;;;40.92;20.75;;;;;;;-144.19;100.00;78843.53;6182610;23;20027;-85
2022/03/04 02:12:37;;;;;;;42.03;19.52;;;;;;;-144.19;100.00;78843.53;6155751;23;20052;-85
2022/03/04 02:15:05;;;;;;;28.65;14.55;;;;;;;-144.19;100.00;78835.66;6182433;23;20025;-85
2022/03/04 02:17:31;;;;;;;36.88;19.08;;;;;;;-144.19;100.00;78843.53;6181896;23;20482;-84
2022/03/04 02:19:59;;;;;;;37.95;19.70;;;;;;;-144.19;100.00;78853.38;6156058;23;20017;-85
2022/03/04 02:22:25;;;;;;;;;;;;;;;-144.19;100.00;78863.22;6156213;23;20021;-85
2022/03/04 02:24:51;;;;;;;33.95;17.83;;;;;;;-144.19;100.00;78855.34;6156462;23;20248;-86
2022/03/04 02:27:18;;;;;;;39.08;19.70;;;;;;;-144.19;100.00;78851.41;6181839;23;20100;-86
2022/03/04 02:29:44;;;;;;;34.65;18.60;;;;;;;-144.19;100.00;78853.38;6179954;23;20031;-87
2022/03/04 02:32:11;;;;;;;36.38;18.85;;;;;;;-144.19;100.00;78849.44;6154744;23;20025;-85
2022/03/04 02:34:37;;;;;;;39.35;20.00;;;;;;;-144.19;100.00;78851.41;6156254;23;20075;-85
2022/03/04 02:37:04;;;;;;;36.10;19.70;;;;;;;-144.19;100.00;78839.59;6157242;23;20070;-85
2022/03/04 02:39:31;;;;;;;33.00;19.10;;;;;;;-144.19;100.00;78849.44;6157609;23;20021;-85
2022/03/04 02:41:57;;;;;;;35.27;18.13;;;;;;;-144.19;100.00;78839.59;6156884;23;20024;-86
2022/03/04 02:44:23;;;;;;;37.57;18.20;;;;;;;-144.19;100.00;78831.72;6157517;23;20248;-86
2022/03/04 02:46:50;;;;;;;37.25;19.45;;;;;;;-144.19;100.00;78835.66;6183257;23;20295;-87
2022/03/04 02:49:16;;;;;;;38.83;21.50;;;;;;;-144.19;100.00;78833.69;6183651;23;20466;-85
2022/03/04 02:51:43;;;;;;;35.83;19.83;;;;;;;-144.19;100.00;78833.69;6183618;23;20099;-86
2022/03/04 02:54:09;;;;;;;33.90;19.65;;;;;;;-144.19;100.00;78819.91;6183299;23;20354;-86
2022/03/04 02:56:35;;;;;;;34.63;19.50;;;;;;;-144.19;100.00;78823.84;6183383;23;20017;-86
2022/03/04 02:59:02;;;;;;;33.67;18.03;;;;;;;-144.19;100.00;78827.78;6156986;23;20784;-86
2022/03/04 03:01:29;;;;;;;36.28;19.83;;;;;;;-144.19;100.00;78815.97;6178223;23;20263;-86
2022/03/04 03:03:55;;;;;;;41.47;20.08;;;;;;;-144.19;100.00;78823.84;6183054;23;20021;-85
2022/03/04 03:06:22;;;;;;;35.15;18.70;;;;;;;-144.19;100.00;78839.59;6182246;23;20056;-85
2022/03/04 03:08:49;;;;;;;39.80;19.20;;;;;;;-144.19;100.00;78855.34;6182026;23;20404;-85
2022/03/04 03:11:15;;;;;;;41.55;20.00;;;;;;;-144.19;100.00;78853.38;6181819;23;20025;-85
2022/03/04 03:13:42;;;;;;;34.40;19.20;;;;;;;-144.19;100.00;78855.34;6183178;23;20021;-85
2022/03/04 03:16:09;;;;;;;39.03;19.95;;;;;;;-144.19;100.00;78861.25;6183627;23;20072;-85
2022/03/04 03:18:36;;;;;;;39.15;19.27;;;;;;;-144.19;100.00;78861.25;6181197;23;20021;-85
2022/03/04 03:21:03;;;;;;;40.40;19.90;;;;;;;-144.19;100.00;78875.06;6181782;23;20107;-85
2022/03/04 03:23:29;;;;;;;38.42;18.83;;;;;;;-144.19;100.00;78890.81;6181302;23;20021;-88
2022/03/04 03:25:56;;;;;;;44.40;20.15;;;;;;;-144.19;100.00;78890.81;6182313;23;20021;-86
2022/03/04 03:28:22;;;;;;;38.97;20.67;;;;;;;-144.19;100.00;78875.06;6181708;23;20023;-85
2022/03/04 03:30:49;;;;;;;36.30;20.20;;;;;;;-144.19;100.00;78871.13;6181677;23;20255;-85
2022/03/04 03:33:15;;;;;;;41.95;21.05;;;;;;;-144.19;100.00;78882.94;6211124;23;20020;-85
2022/03/04 03:35:42;;;;;;;39.45;21.23;;;;;;;-144.19;100.00;78879.00;6213967;23;20274;-87
2022/03/04 03:38:08;;;;;;;43.63;21.50;;;;;;;-144.19;100.00;78882.94;6187003;23;20473;-87
2022/03/04 03:40:35;;;;;;;43.20;21.65;;;;;;;-144.19;100.00;78879.00;6186797;23;20035;-87
2022/03/04 03:43:19;;;;;;;39.50;20.23;;;;;;;-144.19;100.00;78886.88;6213314;23;20039;-87
2022/03/04 03:45:45;;;;;;;42.22;20.33;;;;;;;-144.19;100.00;78904.59;6186983;23;20023;-87
2022/03/04 03:48:12;;;;;;;43.33;21.27;;;;;;;-144.19;100.00;78902.63;6186910;23;20028;-87
2022/03/04 03:50:38;;;;;;;44.50;21.63;;;;;;;-144.19;100.00;78904.59;6214969;23;20021;-87
2022/03/04 03:53:06;;;;;;;40.75;20.65;;;;;;;-144.19;100.00;78906.56;6187173;23;20252;-87
2022/03/04 03:55:36;;;;;;;42.38;21.35;;;;;;;-144.19;100.00;78910.50;6188359;23;20079;-87
2022/03/04 03:58:05;;;;;;;41.22;20.98;;;;;;;-144.19;100.00;78910.50;6186786;23;20079;-87
2022/03/04 04:00:58;;;;;;;38.40;19.52;;;;;;;-144.19;100.00;78902.63;6186559;23;20028;-87
2022/03/04 04:04:02;;;;;;;47.38;21.30;;;;;;;-144.19;100.00;78910.50;6159563;23;20032;-87
2022/03/04 04:06:42;;;;;;;34.17;18.58;;;;;;;-144.19;100.00;78914.44;6184014;23;20027;-87
2022/03/04 04:09:19;;;;;;;44.22;22.35;;;;;;;-144.19;100.00;78930.19;6186755;23;20020;-87
2022/03/04 04:11:54;;;;;;;42.03;20.58;;;;;;;-144.19;100.00;78922.31;6214600;23;20103;-87
2022/03/04 04:14:30;;;;;;;44.88;21.77;;;;;;;-144.19;100.00;78918.38;6187808;23;20681;-87
2022/03/04 04:17:28;;;;;;;41.10;20.38;;;;;;;-144.19;100.00;78914.44;6189360;23;20021;-87
2022/03/04 04:19:58;;;;;;;44.08;20.88;;;;;;;-144.19;100.00;78914.44;6214250;23;20083;-87
2022/03/04 04:22:27;;;;;;;45.58;22.05;;;;;;;-144.19;100.00;78918.38;6212381;23;20100;-86
2022/03/04 04:24:54;;;;;;;45.25;23.48;;;;;;;-144.19;100.00;78920.34;6186620;23;20044;-86
2022/03/04 04:27:21;;;;;;;41.95;21.38;;;;;;;-144.19;100.00;78918.38;6186761;23;20100;-86
2022/03/04 04:29:47;;;;;;;43.88;20.10;;;;;;;-144.19;100.00;78934.13;6186880;23;20035;-87
2022/03/04 04:32:13;;;;;;;46.40;21.27;;;;;;;-144.19;100.00;78930.19;6185943;23;20020;-86
2022/03/04 04:34:40;;;;;;;43.25;20.58;;;;;;;-144.19;100.00;78926.25;6212577;23;20565;-86
2022/03/04 04:37:06;;;;;;;43.50;21.35;;;;;;;-144.19;100.00;78914.44;6186406;23;20021;-87
2022/03/04 04:39:32;;;;;;;47.13;22.23;;;;;;;-144.19;100.00;78910.50;6186150;23;20047;-86
2022/03/04 04:41:59;;;;;;;43.47;21.23;;;;;;;-144.19;100.00;78916.41;6186292;23;20265;-86
2022/03/04 04:49:25;;;;;;;;;;;;;;;;;;;;;
2022/03/04 04:52:07;;;;;;;40.08;20.33;;;;;;;-144.19;100.00;78910.50;6208017;23;20020;-86
2022/03/04 04:54:34;;;;;;;39.38;20.65;;;;;;;-144.19;100.00;78910.50;6185761;23;20025;-86
2022/03/04 04:57:01;;;;;;;43.92;20.35;;;;;;;-144.19;100.00;78906.56;6212065;23;20017;-87
2022/03/04 04:59:28;;;;;;;45.53;21.73;;;;;;;-144.19;100.00;78894.75;6212300;23;20027;-86
2022/03/04 05:01:54;;;;;;;44.13;22.38;;;;;;;-144.19;100.00;78888.84;6163413;23;20096;-84
2022/03/04 05:04:20;;;;;;;44.55;18.83;;;;;;;-144.19;100.00;78896.72;6195115;23;20108;-85
2022/03/04 05:06:47;;;;;;;41.85;19.33;;;;;;;-144.19;100.00;78910.50;6162225;23;20025;-86
2022/03/04 05:09:14;;;;;;;36.65;20.23;;;;;;;-144.19;100.00;78916.41;6161110;23;20064;-86
2022/03/04 05:11:41;;;;;;;42.38;19.02;;;;;;;-144.19;100.00;78924.28;6186131;23;20056;-85
2022/03/04 05:14:07;;;;;;;41.30;20.00;;;;;;;-144.19;100.00;78930.19;6187717;23;20021;-84
2022/03/04 05:16:34;;;;;;;37.13;19.95;;;;;;;-144.19;100.00;78934.13;6185548;23;20099;-89
2022/03/04 05:19:00;;;;;;;39.05;19.63;;;;;;;-144.19;100.00;78908.53;6161870;23;20044;-86
2022/03/04 05:21:27;;;;;;;43.97;20.15;;;;;;;-144.19;100.00;78928.22;6160662;23;20036;-86
2022/03/04 05:23:59;;;;;;;46.03;21.58;;;;;;;-144.19;100.00;78928.22;6160933;23;20414;-86
2022/03/04 05:26:34;;;;;;;41.65;20.42;;;;;;;-144.19;100.00;78918.38;6185398;23;20088;-85
2022/03/04 05:29:03;;;;;;;42.13;20.05;;;;;;;-144.19;100.00;78928.22;6159891;23;20013;-86
2022/03/04 05:31:29;;;;;;;40.20;20.45;;;;;;;-144.19;100.00;78926.25;6187454;23;20025;-85
2022/03/04 05:33:56;;;;;;;42.13;19.88;;;;;;;-144.19;100.00;78926.25;6159068;23;20029;-85
2022/03/04 05:36:23;;;;;;;43.65;20.65;;;;;;;-144.19;100.00;78934.13;6186857;23;20100;-86
2022/03/04 05:38:50;;;;;;;45.13;22.17;;;;;;;-144.19;100.00;78930.19;6159251;23;20014;-86
2022/03/04 05:41:17;;;;;;;45.05;21.35;;;;;;;-144.19;100.00;78924.28;6160100;23;20027;-86
2022/03/04 05:43:45;;;;;;;42.50;21.23;;;;;;;-144.19;100.00;78926.25;6159662;23;20028;-87
2022/03/04 05:46:13;;;;;;;41.70;20.65;;;;;;;-144.19;100.00;78924.28;6159067;23;20025;-86
2022/03/04 05:48:40;;;;;;;42.10;20.58;;;;;;;-144.19;100.00;78932.16;6158360;23;20029;-84
2022/03/04 05:51:07;;;;;;;47.63;22.20;;;;;;;-144.19;100.00;78938.06;6159317;23;20369;-86
2022/03/04 05:53:34;;;;;;;46.17;21.48;;;;;;;-144.19;100.00;78938.06;6158855;23;20134;-88
2022/03/04 05:56:01;;;;;;;43.92;20.27;;;;;;;-144.19;100.00;78934.13;6158287;23;20096;-83
2022/03/04 05:58:27;;;;;;;;;;;;;;;-144.19;100.00;78930.19;6186586;23;20107;-85
2022/03/04 06:00:54;;;;;;;47.75;20.55;;;;;;;-144.19;100.00;78945.94;6157214;23;20345;-83
2022/03/04 06:03:21;;;;;;;47.45;21.08;;;;;;;-144.19;100.00;78965.66;6157476;23;20025;-85
2022/03/04 06:05:48;;;;;;;43.28;22.50;;;;;;;-144.19;100.00;78955.81;6158266;23;20111;-85
2022/03/04 06:08:14;;;;;;;49.05;21.02;;;;;;;-144.19;100.00;78965.66;6157536;23;20017;-85
2022/03/04 06:10:41;;;;;;;52.40;23.58;;;;;;;-144.19;100.00;78957.78;6159339;23;20021;-85
2022/03/04 06:13:07;;;;;;;49.35;23.70;;;;;;;-144.19;100.00;78969.59;6159718;23;20021;-84
2022/03/04 06:15:34;;;;;;;50.13;22.42;;;;;;;-144.19;100.00;78977.47;6186468;23;20029;-85
2022/03/04 06:18:00;;;;;;;52.92;24.05;;;;;;;-144.19;100.00;78987.31;6160981;23;20444;-85
2022/03/04 06:20:27;;;;;;;52.38;24.13;;;;;;;-144.19;100.00;78985.34;6166841;23;20028;-84
2022/03/04 06:22:54;;;;;;;57.55;25.27;;;;;;;-144.19;100.00;78981.41;6159944;23;20032;-85
2022/03/04 06:25:20;;;;;;;57.55;27.05;;;;;;;-144.19;100.00;78985.34;6160767;23;20025;-85
2022/03/04 06:28:00;;;;;;;53.75;25.52;;;;;;;-144.19;100.00;78985.34;6160345;23;20174;-87
2022/03/04 06:30:31;;;;;;;54.88;24.35;;;;;;;-144.19;100.00;78977.47;6186462;23;20053;-84
2022/03/04 06:35:45;;;;;;;57.67;25.27;;;;;;;-144.19;100.00;78993.22;6186553;23;20457;-86
2022/03/04 06:38:12;;;;;;;66.28;26.75;;;;;;;-144.19;100.00;78987.31;6160141;23;20020;-84
2022/03/04 06:40:39;;;;;;;61.47;26.67;;;;;;;-144.19;100.00;78977.47;6160067;23;20035;-85
2022/03/04 06:43:06;;;;;;;;;;;;;;;-144.19;100.00;78985.34;6160055;23;20025;-85
2022/03/04 06:45:32;;;;;;;59.03;27.58;;;;;;;-144.19;100.00;78993.22;6186070;23;20313;-86
2022/03/04 06:47:59;;;;;;;65.63;27.00;;;;;;;-144.19;100.00;79008.97;6159723;23;20017;-84
2022/03/04 06:50:26;;;;;;;69.07;30.23;;;;;;;-144.19;100.00;79008.97;6185425;23;20021;-84
2022/03/04 06:52:53;;;;;;;68.47;28.33;;;;;;;-144.19;100.00;79005.03;6161023;23;20025;-87
2022/03/04 06:55:20;;;;;;;64.65;28.67;;;;;;;-144.19;100.00;79005.03;6160385;23;20456;-86
2022/03/04 06:57:50;;;;;;;72.40;27.77;;;;;;;-144.19;100.00;78995.19;6160146;23;20039;-85
2022/03/04 07:00:17;;;;;;;78.00;30.58;;;;;;;-144.19;100.00;79012.91;6186269;23;20020;-84
2022/03/04 07:02:44;;;;;;;75.20;30.75;;;;;;;-144.19;100.00;79010.94;6186795;23;20040;-86
2022/03/04 07:05:10;;;;;;;72.82;29.25;;;;;;;-144.19;100.00;79012.91;6159939;23;20097;-83
2022/03/04 07:07:37;;;;;;;78.63;30.02;;;;;;;-144.19;100.00;79016.84;6160517;23;20025;-88
2022/03/04 07:10:05;;;;;;;81.13;31.55;;;;;;;-144.19;100.00;79024.75;6187647;23;20357;-86
2022/03/04 07:12:31;;;;;;;78.93;32.55;;;;;;;-144.19;100.00;79014.88;6160006;23;20027;-86
2022/03/04 07:14:58;;;;;;;84.30;34.15;;;;;;;-144.19;100.00;79012.91;6187486;23;20335;-87
2022/03/04 07:17:24;;;;;;;82.45;34.13;;;;;;;-144.19;100.00;79005.03;6186519;23;20021;-84
2022/03/04 07:19:50;;;;;;;81.15;33.00;;;;;;;-144.19;100.00;78993.22;6185975;23;20024;-85
2022/03/04 07:22:17;;;;;;;84.15;31.75;;;;;;;-144.19;100.00;78977.47;6159376;23;20052;-85
2022/03/04 07:24:43;;;;;;;85.55;34.47;;;;;;;-144.19;100.00;78983.38;6160566;23;20391;-85
2022/03/04 07:27:10;;;;;;;90.23;33.30;;;;;;;-144.19;100.00;78979.44;6185233;23;20021;-90
2022/03/04 07:29:36;;;;;;;84.38;35.60;;;;;;;-144.19;100.00;78973.53;6186341;23;20279;-86
2022/03/04 07:32:03;;;;;;;85.23;33.13;;;;;;;-144.19;100.00;78965.66;6159781;23;20025;-85
2022/03/04 07:34:30;;;;;;;90.20;33.72;;;;;;;-144.19;100.00;78969.59;6198631;23;20279;-87
2022/03/04 07:36:56;;;;;;;83.60;32.92;;;;;;;-144.19;100.00;78971.56;6161755;23;20444;-87
2022/03/04 07:39:22;;;;;;;80.45;34.55;;;;;;;-144.19;100.00;78965.66;6188371;23;20021;-86
2022/03/04 07:41:50;;;;;;;85.88;33.42;;;;;;;-144.19;100.00;78961.72;6162520;23;20024;-87
2022/03/04 07:44:18;;;;;;;88.38;33.70;;;;;;;-144.19;100.00;78971.56;6188090;23;20036;-86
2022/03/04 07:46:45;;;;;;;86.80;34.60;;;;;;;-144.19;100.00;78965.66;6161710;23;20032;-87
2022/03/04 07:49:11;;;;;;;87.43;33.38;;;;;;;-144.19;100.00;78957.78;6162272;23;20063;-86
2022/03/04 07:51:38;;;;;;;95.72;37.60;;;;;;;-144.19;100.00;78969.59;6187733;23;20025;-84
2022/03/04 07:54:04;;;;;;;88.20;33.28;;;;;;;-144.19;100.00;78967.63;6160781;23;20017;-86
2022/03/04 07:56:31;;;;;;;88.38;33.65;;;;;;;-144.19;100.00;78977.47;6161577;23;20069;-86
2022/03/04 07:58:57;;;;;;;87.47;33.80;;;;;;;-144.19;100.00;78979.44;6162047;23;20077;-86
2022/03/04 08:01:24;;;;;;;79.45;33.72;;;;;;;-144.19;100.00;78981.41;6161351;23;20104;-84
2022/03/04 08:03:51;;;;;;;84.90;36.20;;;;;;;-144.19;100.00;79001.09;6187985;23;20052;-86
2022/03/04 08:06:17;;;;;;;82.45;33.35;;;;;;;-144.19;100.00;79005.03;6161391;23;20021;-85
2022/03/04 08:08:44;;;;;;;84.15;32.20;;;;;;;-144.19;100.00;79001.09;6162646;23;20458;-87
2022/03/04 08:11:10;;;;;;;85.28;32.92;;;;;;;-144.19;100.00;78981.41;6164440;23;20348;-86
2022/03/04 08:13:37;;;;;;;82.43;31.80;;;;;;;-144.19;100.00;78977.47;6162299;23;20548;-86
2022/03/04 08:16:04;;;;;;;79.95;34.35;;;;;;;-144.19;100.00;78981.41;6164609;23;20108;-88
2022/03/04 08:18:30;;;;;;;87.57;33.42;;;;;;;-144.19;100.00;78969.59;6162334;23;20017;-85
2022/03/04 08:20:59;;;;;;;82.93;33.30;;;;;;;-144.19;100.00;78957.78;6163152;23;20083;-89
2022/03/04 08:23:25;;;;;;;78.57;32.90;;;;;;;-144.19;100.00;78947.94;6160813;23;20021;-88
2022/03/04 08:25:52;;;;;;;86.38;34.90;;;;;;;-144.19;100.00;78922.31;6161110;23;20618;-89
2022/03/04 08:28:18;;;;;;;79.35;30.70;;;;;;;-144.19;100.00;78932.16;6160937;23;20096;-86
2022/03/04 08:30:44;;;;;;;77.57;32.28;;;;;;;-144.19;100.00;78934.13;6161974;23;20027;-88
2022/03/04 08:33:11;;;;;;;81.53;32.65;;;;;;;-144.19;100.00;78945.94;6186504;23;20029;-87
2022/03/04 08:35:37;;;;;;;76.60;32.33;;;;;;;-144.19;100.00;78942.00;6161030;23;20026;-86
2022/03/04 08:38:04;;;;;;;73.57;32.67;;;;;;;-144.19;100.00;78918.38;6186119;23;20266;-88
2022/03/04 08:40:30;;;;;;;69.97;31.80;;;;;;;-144.19;100.00;78910.50;6159497;23;20017;-88
2022/03/04 08:42:57;;;;;;;68.78;30.58;;;;;;;-144.19;100.00;78902.63;6160217;23;20021;-89
2022/03/04 08:45:23;;;;;;;71.78;32.17;;;;;;;-144.19;100.00;78884.91;6160181;23;20023;-89
2022/03/04 08:47:50;;;;;;;74.22;29.90;;;;;;;-144.19;100.00;78863.22;6174541;23;20061;-91
2022/03/04 08:50:17;;;;;;;69.70;31.13;;;;;;;-144.19;100.00;78843.53;6162890;23;20037;-86
2022/03/04 08:52:43;;;;;;;66.43;28.42;;;;;;;-144.19;100.00;78835.66;6160570;23;20073;-88
2022/03/04 08:55:17;;;;;;;58.40;28.45;;;;;;;-144.19;100.00;78839.59;6161300;23;20063;-88
2022/03/04 08:57:45;;;;;;;70.68;30.13;;;;;;;-144.19;100.00;78819.91;6160761;23;20017;-88
2022/03/04 09:00:13;;;;;;;68.57;30.40;;;;;;;-144.19;100.00;78806.13;6161326;23;20027;-86
2022/03/04 09:02:40;;;;;;;65.40;29.67;;;;;;;-144.19;100.00;78804.16;6160870;23;20021;-87
2022/03/04 09:05:07;;;;;;;65.35;27.83;;;;;;;-144.19;100.00;78792.34;6161840;23;20053;-87
2022/03/04 09:07:33;;;;;;;57.03;27.48;;;;;;;-144.19;100.00;78784.44;6161370;23;20430;-87
2022/03/04 09:10:00;;;;;;;63.95;28.52;;;;;;;-144.19;100.00;78788.38;6162905;23;20466;-90
2022/03/04 09:12:26;;;;;;;63.58;27.77;;;;;;;-144.19;100.00;78754.91;6162097;23;20458;-87
2022/03/04 09:14:52;;;;;;;58.47;27.33;;;;;;;-144.19;100.00;78752.94;6161149;23;20017;-85
2022/03/04 09:17:19;;;;;;;59.90;27.83;;;;;;;-144.19;100.00;78717.50;6160088;23;20028;-86
2022/03/04 09:19:45;;;;;;;55.83;27.23;;;;;;;-144.19;100.00;78697.78;6186859;23;20237;-84
2022/03/04 09:22:23;;;;;;;59.75;26.58;;;;;;;-144.19;100.00;78693.84;6163439;23;20113;-86
2022/03/04 09:24:49;;;;;;;60.67;27.20;;;;;;;-144.19;100.00;78684.00;6160704;23;20031;-87
2022/03/04 09:27:15;;;;;;;55.57;27.07;;;;;;;-144.19;100.00;78678.09;6186498;23;20017;-87
2022/03/04 09:29:42;;;;;;;56.47;26.75;;;;;;;-144.19;100.00;78660.38;6160006;23;20027;-88
2022/03/04 09:32:08;;;;;;;51.27;24.53;;;;;;;-144.19;100.00;78626.91;6160517;23;20025;-87
2022/03/04 09:34:35;;;;;;;45.47;21.57;;;;;;;-144.19;100.00;78599.31;6159987;23;20244;-87
2022/03/04 09:37:01;;;;;;;48.08;22.73;;;;;;;-144.19;100.00;78583.56;6160034;23;20236;-86
2022/03/04 09:39:27;;;;;;;40.75;20.55;;;;;;;-144.19;100.00;78559.94;6158598;23;20020;-87
2022/03/04 09:41:54;;;;;;;45.80;22.63;;;;;;;-144.19;100.00;78571.75;6158711;23;20021;-85
2022/03/04 09:44:20;;;;;;;39.97;20.70;;;;;;;-144.19;100.00;78548.13;6157833;23;20021;-87
2022/03/04 09:46:47;;;;;;;39.10;20.05;;;;;;;-144.19;100.00;78532.38;6158925;23;20245;-86
2022/03/04 09:49:16;;;;;;;37.88;19.90;;;;;;;-144.19;100.00;78508.72;6185163;23;20021;-85
2022/03/04 09:51:43;;;;;;;40.88;20.42;;;;;;;-144.19;100.00;78491.00;6185605;23;20498;-85
2022/03/04 09:54:09;;;;;;;43.20;20.15;;;;;;;-144.19;100.00;78475.25;6158542;23;20024;-85
2022/03/04 09:56:36;;;;;;;38.65;19.02;;;;;;;-144.19;100.00;78461.47;6158709;23;20028;-87
2022/03/04 09:59:02;;;;;;;34.13;17.17;;;;;;;-144.19;100.00;78414.19;6159207;23;20021;-86
2022/03/04 10:01:28;;;;;;;38.30;19.13;;;;;;;-144.19;100.00;78426.03;6186331;23;20423;-88
2022/03/04 10:03:55;;;;;;;33.45;16.85;;;;;;;-144.19;100.00;78398.44;6195096;23;20044;-86
2022/03/04 10:06:22;;;;;;;35.28;17.00;;;;;;;-144.19;100.00;78382.69;6162169;23;20361;-85
2022/03/04 10:08:50;;;;;;;31.52;16.83;;;;;;;-144.19;100.00;78357.09;6160816;23;20023;-86
2022/03/04 10:11:43;;;;;;;33.13;17.50;;;;;;;-144.19;100.00;78335.44;6161326;23;20099;-86
2022/03/04 10:14:13;;;;;;;33.75;17.02;;;;;;;-144.19;100.00;78329.53;6156509;23;20076;-86
2022/03/04 10:16:41;;;;;;;27.63;14.75;;;;;;;-144.19;100.00;78343.31;6159904;23;20021;-86
2022/03/04 10:19:19;;;;;;;27.15;14.07;;;;;;;-144.19;100.00;78343.31;6159615;23;20366;-87
2022/03/04 10:21:53;;;;;;;26.00;14.05;;;;;;;-144.19;100.00;78335.44;6159888;23;20027;-85
2022/03/04 10:24:19;;;;;;;22.88;12.43;;;;;;;-144.19;100.00;78296.03;6159373;23;20509;-85
2022/03/04 10:26:46;;;;;;;23.60;13.50;;;;;;;-144.19;100.00;78284.22;6186446;23;20077;-86
2022/03/04 10:29:20;;;;;;;22.35;13.48;;;;;;;-144.19;100.00;78231.06;6159659;23;20295;-87
2022/03/04 10:32:06;;;;;;;24.00;13.68;;;;;;;-144.19;100.00;78197.59;6186106;23;20104;-85
2022/03/04 10:34:50;;;;;;;22.70;12.45;;;;;;;-144.19;100.00;78173.94;6161902;23;20068;-86
2022/03/04 10:37:19;;;;;;;22.73;12.25;;;;;;;-144.19;100.00;78126.69;6160177;23;20021;-86
2022/03/04 10:40:22;;;;;;;23.27;11.90;;;;;;;-144.19;100.00;78120.78;6159383;23;20088;-86
2022/03/04 10:42:54;;;;;;;27.95;15.85;;;;;;;-144.19;100.00;78004.59;6097488;23;20105;-86
2022/03/04 10:45:30;;;;;;;30.70;16.20;;;;;;;-144.19;100.00;78110.94;6149696;23;20032;-84
2022/03/04 10:48:03;;;;;;;28.95;17.42;;;;;;;-144.19;100.00;78118.81;6159217;23;20073;-87
2022/03/04 10:50:37;;;;;;;30.67;17.42;;;;;;;-144.19;100.00;77969.16;6159632;23;20023;-86
2022/03/04 10:53:12;;;;;;;31.40;17.77;;;;;;;-144.19;100.00;77945.53;6158585;23;20100;-86
2022/03/04 10:55:44;;;;;;;30.02;16.10;;;;;;;-144.19;97.23;77732.88;6182998;23;20092;-87
2022/03/04 10:58:19;;;;;;;29.30;17.00;;;;;;;-144.19;89.62;77726.97;6184874;23;20024;-86
2022/03/04 11:00:56;;;;;;;30.08;16.52;;;;;;;-144.19;97.22;77602.94;6184901;23;20065;-85
2022/03/04 11:03:26;;;;;;;31.10;16.33;;;;;;;-144.19;85.14;77634.44;6157969;23;20100;-86
2022/03/04 11:05:55;;;;;;;28.85;16.45;;;;;;;-144.19;81.92;77453.28;6158347;23;20021;-88
2022/03/04 11:08:22;;;;;;;29.17;16.90;;;;;;;-144.19;82.49;77595.06;6158403;23;20096;-86